Time;durP1;ratioP1;P1;durP2;ratioP2;P2;SDS_P1;SDS_P2;PMS_P1;PMS_P2;Temp;Humidity;BMP_temperature;BMP_pressure;BME280_temperature;BME280_humidity;BME280_pressure;Samples;Min_cycle;Max_cycle;Signal;HPM_P1;HPM_P2
2023/06/25 00:01:46;;;;;;;12.02;11.43;;;;;;;;;;4988883;28;20015;-63
2023/06/25 00:04:11;;;;;;;11.55;11.05;;;;;;;;;;4993623;28;20089;-63
2023/06/25 00:06:36;;;;;;;12.30;11.70;;;;;;;;;;4994481;28;20015;-64
2023/06/25 00:09:02;;;;;;;12.27;11.68;;;;;;;;;;4995454;28;20033;-64
2023/06/25 00:11:28;;;;;;;12.02;11.45;;;;;;;;;;4995238;28;20015;-63
2023/06/25 00:13:53;;;;;;;11.95;11.38;;;;;;;;;;4987044;28;20106;-62
2023/06/25 00:16:19;;;;;;;12.10;11.50;;;;;;;;;;4983716;28;20386;-63
2023/06/25 00:18:47;;;;;;;12.10;11.50;;;;;;;;;;4993436;28;20026;-64
2023/06/25 00:21:12;;;;;;;12.45;11.85;;;;;;;;;;4995982;28;20026;-64
2023/06/25 00:23:38;;;;;;;11.52;11.02;;;;;;;;;;4993012;28;20030;-63
2023/06/25 00:26:03;;;;;;;13.05;12.40;;;;;;;;;;4994253;28;20026;-62
2023/06/25 00:28:29;;;;;;;12.52;11.93;;;;;;;;;;4986586;28;20050;-65
2023/06/25 00:30:54;;;;;;;13.13;12.43;;;;;;;;;;4984771;28;20050;-66
2023/06/25 00:33:19;;;;;;;14.60;13.80;;;;;;;;;;4986796;28;20072;-65
2023/06/25 00:35:47;;;;;;;11.90;11.40;;;;;;;;;;4979462;28;20042;-66
2023/06/25 00:38:12;;;;;;;13.07;12.40;;;;;;;;;;4988804;28;20022;-67
2023/06/25 00:40:38;;;;;;;12.27;11.68;;;;;;;;;;4985177;28;20034;-67
2023/06/25 00:43:03;;;;;;;12.43;11.82;;;;;;;;;;4984597;28;20038;-67
2023/06/25 00:45:29;;;;;;;12.70;12.10;;;;;;;;;;4988328;28;20057;-65
2023/06/25 00:47:54;;;;;;;12.82;12.23;;;;;;;;;;4980770;28;20755;-66
2023/06/25 00:50:22;;;;;;;12.38;11.77;;;;;;;;;;4987351;28;20446;-65
2023/06/25 00:52:48;;;;;;;12.88;12.27;;;;;;;;;;4987162;28;20027;-65
2023/06/25 00:55:14;;;;;;;12.50;11.90;;;;;;;;;;4985975;28;20041;-66
2023/06/25 00:57:41;;;;;;;12.60;12.00;;;;;;;;;;4976154;28;20018;-65
2023/06/25 01:00:12;;;;;;;12.75;12.15;;;;;;;;;;4991322;28;20034;-65
2023/06/25 01:02:38;;;;;;;13.57;12.88;;;;;;;;;;4986957;28;20026;-65
2023/06/25 01:05:05;;;;;;;12.30;11.70;;;;;;;;;;4989198;28;20022;-65
2023/06/25 01:07:32;;;;;;;12.65;12.05;;;;;;;;;;4988451;28;20061;-64
2023/06/25 01:09:58;;;;;;;11.95;11.43;;;;;;;;;;4990093;28;20026;-64
2023/06/25 01:12:23;;;;;;;11.82;11.32;;;;;;;;;;4991210;28;20037;-64
2023/06/25 01:14:49;;;;;;;12.60;12.00;;;;;;;;;;4986806;28;20084;-65
2023/06/25 01:17:14;;;;;;;12.50;11.90;;;;;;;;;;4989113;28;20034;-64
2023/06/25 01:19:40;;;;;;;12.50;11.90;;;;;;;;;;4989444;28;20026;-64
2023/06/25 01:22:06;;;;;;;12.38;11.77;;;;;;;;;;4992113;28;20079;-64
2023/06/25 01:24:35;;;;;;;13.15;12.50;;;;;;;;;;4986715;28;20486;-65
2023/06/25 01:27:04;;;;;;;12.35;11.75;;;;;;;;;;4991811;28;20041;-65
2023/06/25 01:29:29;;;;;;;12.18;11.57;;;;;;;;;;4985792;28;20050;-65
2023/06/25 01:31:57;;;;;;;13.27;12.57;;;;;;;;;;4990342;28;20029;-65
2023/06/25 01:34:22;;;;;;;11.65;11.15;;;;;;;;;;4990543;28;20046;-64
2023/06/25 01:36:51;;;;;;;12.48;11.88;;;;;;;;;;4987720;28;20112;-64
2023/06/25 01:39:17;;;;;;;12.48;11.88;;;;;;;;;;4983112;28;20018;-65
2023/06/25 01:41:43;;;;;;;12.05;11.48;;;;;;;;;;4985240;28;20134;-64
2023/06/25 01:44:29;;;;;;;13.55;12.85;;;;;;;;;;4988639;28;20030;-65
2023/06/25 01:46:55;;;;;;;13.27;12.57;;;;;;;;;;4989102;28;20030;-65
2023/06/25 01:49:20;;;;;;;12.63;12.02;;;;;;;;;;5004820;28;20116;-65
2023/06/25 01:51:46;;;;;;;12.60;12.00;;;;;;;;;;4987817;28;20180;-65
2023/06/25 01:54:11;;;;;;;12.77;12.18;;;;;;;;;;4983739;28;20026;-64
2023/06/25 01:56:36;;;;;;;12.23;11.63;;;;;;;;;;4985839;28;20490;-65
2023/06/25 01:59:02;;;;;;;12.73;12.13;;;;;;;;;;4990383;28;20054;-65
2023/06/25 02:01:27;;;;;;;11.57;11.07;;;;;;;;;;4991269;28;20109;-65
2023/06/25 02:03:53;;;;;;;13.20;12.50;;;;;;;;;;4987223;28;20367;-65
2023/06/25 02:06:18;;;;;;;12.05;11.50;;;;;;;;;;4989245;28;20037;-65
2023/06/25 02:08:44;;;;;;;12.68;12.07;;;;;;;;;;4986706;28;20037;-64
2023/06/25 02:11:09;;;;;;;12.77;12.18;;;;;;;;;;4988888;28;20057;-65
2023/06/25 02:13:35;;;;;;;13.07;12.48;;;;;;;;;;4990502;28;20018;-65
2023/06/25 02:16:01;;;;;;;12.75;12.15;;;;;;;;;;4990140;28;20077;-65
2023/06/25 02:18:27;;;;;;;12.18;11.57;;;;;;;;;;4979229;28;20081;-65
2023/06/25 02:20:52;;;;;;;12.52;11.93;;;;;;;;;;4990016;28;20056;-64
2023/06/25 02:23:17;;;;;;;12.55;11.95;;;;;;;;;;4985870;28;20343;-65
2023/06/25 02:25:42;;;;;;;12.85;12.25;;;;;;;;;;4988458;28;20034;-65
2023/06/25 02:28:08;;;;;;;13.32;12.63;;;;;;;;;;4984513;28;20676;-64
2023/06/25 02:30:33;;;;;;;12.15;11.55;;;;;;;;;;4989583;28;20026;-65
2023/06/25 02:32:58;;;;;;;12.40;11.80;;;;;;;;;;4986392;28;20364;-64
2023/06/25 02:35:24;;;;;;;12.18;11.60;;;;;;;;;;4984629;28;20015;-64
2023/06/25 02:37:49;;;;;;;12.63;12.02;;;;;;;;;;4989407;28;20081;-63
2023/06/25 02:40:14;;;;;;;12.77;12.18;;;;;;;;;;4987663;28;20030;-64
2023/06/25 02:42:40;;;;;;;12.10;11.50;;;;;;;;;;4987121;28;20037;-64
2023/06/25 02:45:05;;;;;;;12.13;11.52;;;;;;;;;;4986958;28;20014;-63
2023/06/25 02:47:31;;;;;;;12.60;12.00;;;;;;;;;;4987025;28;20073;-64
2023/06/25 02:49:56;;;;;;;12.38;11.77;;;;;;;;;;4987477;28;20026;-64
2023/06/25 02:52:21;;;;;;;11.65;11.15;;;;;;;;;;4988646;28;20065;-64
2023/06/25 02:54:47;;;;;;;11.98;11.40;;;;;;;;;;4984870;28;20046;-64
2023/06/25 02:57:12;;;;;;;12.25;11.65;;;;;;;;;;4988967;28;20097;-64
2023/06/25 02:59:38;;;;;;;12.10;11.50;;;;;;;;;;4989392;28;20026;-64
2023/06/25 03:02:03;;;;;;;12.18;11.57;;;;;;;;;;4988596;28;20366;-64
2023/06/25 03:04:28;;;;;;;12.45;11.85;;;;;;;;;;4980674;28;20085;-64
2023/06/25 03:06:54;;;;;;;11.68;11.15;;;;;;;;;;4985918;28;20026;-64
2023/06/25 03:09:19;;;;;;;11.70;11.20;;;;;;;;;;4990176;28;20117;-64
2023/06/25 03:11:44;;;;;;;12.65;12.05;;;;;;;;;;4989263;28;20093;-64
2023/06/25 03:14:09;;;;;;;12.70;12.10;;;;;;;;;;4987201;28;20066;-65
2023/06/25 03:16:36;;;;;;;12.90;12.30;;;;;;;;;;4988181;28;20022;-65
2023/06/25 03:19:02;;;;;;;12.10;11.50;;;;;;;;;;4986239;28;20478;-64
2023/06/25 03:21:27;;;;;;;12.75;12.15;;;;;;;;;;4987614;28;20040;-64
2023/06/25 03:23:52;;;;;;;11.90;11.35;;;;;;;;;;4987511;28;20026;-66
2023/06/25 03:26:18;;;;;;;12.50;11.90;;;;;;;;;;4986842;28;20049;-64
2023/06/25 03:28:43;;;;;;;12.93;12.30;;;;;;;;;;4985272;28;20058;-64
2023/06/25 03:31:08;;;;;;;12.20;11.60;;;;;;;;;;4988000;28;20137;-65
2023/06/25 03:33:34;;;;;;;12.38;11.77;;;;;;;;;;4988753;28;20054;-65
2023/06/25 03:35:59;;;;;;;12.65;12.05;;;;;;;;;;4985615;28;20073;-64
2023/06/25 03:38:25;;;;;;;12.48;11.88;;;;;;;;;;4987297;28;20030;-65
2023/06/25 03:40:50;;;;;;;11.93;11.43;;;;;;;;;;4988854;28;20109;-64
2023/06/25 03:43:15;;;;;;;13.43;12.73;;;;;;;;;;4989045;28;20073;-63
2023/06/25 03:45:41;;;;;;;11.80;11.30;;;;;;;;;;4986231;28;20058;-63
2023/06/25 03:48:06;;;;;;;12.20;11.60;;;;;;;;;;4986783;28;20026;-64
2023/06/25 03:50:31;;;;;;;12.48;11.88;;;;;;;;;;4989798;28;20109;-64
2023/06/25 03:52:57;;;;;;;12.70;12.10;;;;;;;;;;4983180;28;20039;-64
2023/06/25 03:55:22;;;;;;;12.20;11.60;;;;;;;;;;4983911;28;20033;-64
2023/06/25 03:57:47;;;;;;;12.20;11.60;;;;;;;;;;4989574;28;20276;-65
2023/06/25 04:00:13;;;;;;;12.90;12.27;;;;;;;;;;4988826;28;20026;-64
2023/06/25 04:02:38;;;;;;;11.77;11.27;;;;;;;;;;4990966;28;20042;-64
2023/06/25 04:05:04;;;;;;;12.38;11.77;;;;;;;;;;4991710;28;20034;-64
2023/06/25 04:07:29;;;;;;;12.43;11.82;;;;;;;;;;4986605;28;20490;-64
2023/06/25 04:09:54;;;;;;;11.88;11.38;;;;;;;;;;4985377;28;20108;-64
2023/06/25 04:12:19;;;;;;;11.80;11.30;;;;;;;;;;4992248;28;20026;-63
2023/06/25 04:14:45;;;;;;;12.20;11.60;;;;;;;;;;4988049;28;20038;-64
2023/06/25 04:17:10;;;;;;;12.00;11.40;;;;;;;;;;4989415;28;20767;-65
2023/06/25 04:19:36;;;;;;;13.23;12.52;;;;;;;;;;4991114;28;20018;-64
2023/06/25 04:22:02;;;;;;;11.95;11.35;;;;;;;;;;4993770;28;20141;-64
2023/06/25 04:24:27;;;;;;;12.50;11.90;;;;;;;;;;4990529;28;20160;-65
2023/06/25 04:26:52;;;;;;;12.40;11.80;;;;;;;;;;4989627;28;20085;-64
2023/06/25 04:29:18;;;;;;;12.48;11.88;;;;;;;;;;4992265;28;20050;-64
2023/06/25 04:31:43;;;;;;;12.20;11.60;;;;;;;;;;4991397;28;20496;-64
2023/06/25 04:34:08;;;;;;;12.38;11.77;;;;;;;;;;4991711;28;20026;-64
2023/06/25 04:36:34;;;;;;;12.27;11.68;;;;;;;;;;4989599;28;20029;-64
2023/06/25 04:38:59;;;;;;;12.40;11.80;;;;;;;;;;4988132;28;20379;-64
2023/06/25 04:41:24;;;;;;;12.55;11.95;;;;;;;;;;4990324;28;20072;-65
2023/06/25 04:43:50;;;;;;;12.25;11.65;;;;;;;;;;4991661;28;20030;-65
2023/06/25 04:46:15;;;;;;;12.00;11.40;;;;;;;;;;4987148;28;20037;-65
2023/06/25 04:48:43;;;;;;;12.45;11.85;;;;;;;;;;4990722;28;20064;-64
2023/06/25 04:51:08;;;;;;;12.10;11.50;;;;;;;;;;4991675;28;20061;-64
2023/06/25 04:53:33;;;;;;;11.40;10.90;;;;;;;;;;4988968;28;20456;-65
2023/06/25 04:55:59;;;;;;;11.90;11.30;;;;;;;;;;4998733;28;20026;-64
2023/06/25 04:58:24;;;;;;;11.63;11.13;;;;;;;;;;4991755;28;20026;-64
2023/06/25 05:00:49;;;;;;;12.23;11.63;;;;;;;;;;4992245;28;20053;-63
2023/06/25 05:03:14;;;;;;;11.68;11.18;;;;;;;;;;4987470;28;20130;-65
2023/06/25 05:05:40;;;;;;;12.37;11.77;;;;;;;;;;4986680;28;20035;-64
2023/06/25 05:08:05;;;;;;;11.80;11.30;;;;;;;;;;4989923;28;20344;-65
2023/06/25 05:10:30;;;;;;;11.50;11.00;;;;;;;;;;4991607;28;20022;-65
2023/06/25 05:12:56;;;;;;;12.00;11.40;;;;;;;;;;4991706;28;20040;-65
2023/06/25 05:15:21;;;;;;;12.13;11.52;;;;;;;;;;4985743;28;20031;-66
2023/06/25 05:17:46;;;;;;;11.90;11.30;;;;;;;;;;4984365;28;20391;-64
2023/06/25 05:20:12;;;;;;;11.90;11.30;;;;;;;;;;4986739;28;20268;-64
2023/06/25 05:22:37;;;;;;;11.95;11.35;;;;;;;;;;4987011;28;20026;-65
2023/06/25 05:25:02;;;;;;;12.20;11.60;;;;;;;;;;4990619;28;20037;-65
2023/06/25 05:27:27;;;;;;;11.63;11.13;;;;;;;;;;4991126;28;20490;-65
2023/06/25 05:29:53;;;;;;;12.63;12.02;;;;;;;;;;4990824;28;20066;-65
2023/06/25 05:32:19;;;;;;;12.50;11.90;;;;;;;;;;4990093;28;20026;-64
2023/06/25 05:34:44;;;;;;;11.90;11.32;;;;;;;;;;4991693;28;20387;-65
2023/06/25 05:37:09;;;;;;;12.65;12.05;;;;;;;;;;4991220;28;20027;-65
2023/06/25 05:39:35;;;;;;;12.10;11.50;;;;;;;;;;4989546;28;20109;-64
2023/06/25 05:42:00;;;;;;;12.20;11.60;;;;;;;;;;4989745;28;20492;-64
2023/06/25 05:44:26;;;;;;;12.18;11.57;;;;;;;;;;4991030;28;20018;-64
2023/06/25 05:46:51;;;;;;;12.20;11.60;;;;;;;;;;4991982;28;20465;-64
2023/06/25 05:49:16;;;;;;;13.52;12.82;;;;;;;;;;4986967;28;20328;-64
2023/06/25 05:51:42;;;;;;;11.90;11.32;;;;;;;;;;4991908;28;20028;-64
2023/06/25 05:54:07;;;;;;;11.88;11.38;;;;;;;;;;4989762;28;20062;-64
2023/06/25 05:56:32;;;;;;;12.37;11.77;;;;;;;;;;4990744;28;20129;-64
2023/06/25 05:58:58;;;;;;;11.70;11.20;;;;;;;;;;4984048;28;20275;-64
2023/06/25 06:01:23;;;;;;;12.20;11.60;;;;;;;;;;4988771;28;20053;-64
2023/06/25 06:03:48;;;;;;;12.45;11.85;;;;;;;;;;4989227;28;20030;-64
2023/06/25 06:06:14;;;;;;;12.15;11.55;;;;;;;;;;4990906;28;20049;-65
2023/06/25 06:08:39;;;;;;;12.50;11.90;;;;;;;;;;4986017;28;20049;-64
2023/06/25 06:11:04;;;;;;;12.35;11.75;;;;;;;;;;4988337;28;20398;-65
2023/06/25 06:13:30;;;;;;;12.35;11.75;;;;;;;;;;4990209;28;20117;-65
2023/06/25 06:15:55;;;;;;;12.77;12.18;;;;;;;;;;4991605;28;20054;-65
2023/06/25 06:18:20;;;;;;;12.50;11.90;;;;;;;;;;4989312;28;20068;-64
2023/06/25 06:20:46;;;;;;;11.85;11.35;;;;;;;;;;4992101;28;20029;-64
2023/06/25 06:23:11;;;;;;;11.93;11.40;;;;;;;;;;4989628;28;20027;-64
2023/06/25 06:25:36;;;;;;;12.00;11.45;;;;;;;;;;4983591;28;20101;-65
2023/06/25 06:28:02;;;;;;;12.68;12.07;;;;;;;;;;4990999;28;20517;-65
2023/06/25 06:30:27;;;;;;;12.25;11.65;;;;;;;;;;4988110;28;20041;-64
2023/06/25 06:32:52;;;;;;;12.60;12.00;;;;;;;;;;4989300;28;20080;-65
2023/06/25 06:35:18;;;;;;;12.38;11.77;;;;;;;;;;4985856;28;20030;-65
2023/06/25 06:37:44;;;;;;;12.15;11.55;;;;;;;;;;4990689;28;20478;-64
2023/06/25 06:40:09;;;;;;;12.32;11.73;;;;;;;;;;4988932;28;20177;-65
2023/06/25 06:42:34;;;;;;;12.68;12.07;;;;;;;;;;4987361;28;20022;-64
2023/06/25 06:45:00;;;;;;;12.43;11.82;;;;;;;;;;4988785;28;20036;-64
2023/06/25 06:47:26;;;;;;;12.20;11.60;;;;;;;;;;4989683;28;20084;-65
2023/06/25 06:49:51;;;;;;;12.77;12.18;;;;;;;;;;4983040;28;20030;-65
2023/06/25 06:52:16;;;;;;;12.63;12.02;;;;;;;;;;4986751;28;20030;-64
2023/06/25 06:54:42;;;;;;;14.50;13.70;;;;;;;;;;4980895;28;20363;-65
2023/06/25 06:57:07;;;;;;;12.52;11.93;;;;;;;;;;4986158;28;20018;-61
2023/06/25 06:59:32;;;;;;;12.20;11.60;;;;;;;;;;4985689;28;20506;-60
2023/06/25 07:01:57;;;;;;;13.05;12.45;;;;;;;;;;4989304;28;20033;-62
2023/06/25 07:04:23;;;;;;;13.02;12.43;;;;;;;;;;4987397;28;20080;-61
2023/06/25 07:06:48;;;;;;;12.40;11.80;;;;;;;;;;4987362;28;20030;-61
2023/06/25 07:09:13;;;;;;;12.27;11.68;;;;;;;;;;4990775;28;20030;-60
2023/06/25 07:11:39;;;;;;;12.95;12.35;;;;;;;;;;4989738;28;20034;-60
2023/06/25 07:14:04;;;;;;;12.30;11.70;;;;;;;;;;4984118;28;20125;-61
2023/06/25 07:16:29;;;;;;;11.90;11.30;;;;;;;;;;4989981;28;20018;-61
2023/06/25 07:18:55;;;;;;;11.73;11.23;;;;;;;;;;4987834;28;20065;-61
2023/06/25 07:21:20;;;;;;;12.70;12.10;;;;;;;;;;4986362;28;20069;-61
2023/06/25 07:23:45;;;;;;;12.98;12.38;;;;;;;;;;4985035;28;20515;-61
2023/06/25 07:26:11;;;;;;;12.57;11.98;;;;;;;;;;4985967;28;20026;-61
2023/06/25 07:28:36;;;;;;;12.27;11.68;;;;;;;;;;4989898;28;20065;-60
2023/06/25 07:31:01;;;;;;;12.65;12.05;;;;;;;;;;4986998;28;20101;-60
2023/06/25 07:33:27;;;;;;;12.80;12.20;;;;;;;;;;4993659;28;20580;-60
2023/06/25 07:35:52;;;;;;;12.57;11.98;;;;;;;;;;4984762;28;20264;-61
2023/06/25 07:38:18;;;;;;;12.93;12.32;;;;;;;;;;4989469;28;20022;-61
2023/06/25 07:40:43;;;;;;;12.98;12.38;;;;;;;;;;4986517;28;20042;-61
2023/06/25 07:43:08;;;;;;;12.05;11.48;;;;;;;;;;4987591;28;20549;-61
2023/06/25 07:45:34;;;;;;;12.25;11.65;;;;;;;;;;4990810;28;20117;-61
2023/06/25 07:47:59;;;;;;;12.27;11.68;;;;;;;;;;4992248;28;20050;-61
2023/06/25 07:50:24;;;;;;;12.70;12.10;;;;;;;;;;4992870;28;20536;-60
2023/06/25 07:52:50;;;;;;;12.52;11.93;;;;;;;;;;4988440;28;20026;-61
2023/06/25 07:55:15;;;;;;;12.77;12.18;;;;;;;;;;4985620;28;20072;-61
2023/06/25 07:57:40;;;;;;;12.43;11.82;;;;;;;;;;4988909;28;20045;-61
2023/06/25 08:00:06;;;;;;;12.82;12.23;;;;;;;;;;4985788;28;20026;-61
2023/06/25 08:02:31;;;;;;;12.60;12.00;;;;;;;;;;4989603;28;20038;-60
2023/06/25 08:04:57;;;;;;;11.90;11.40;;;;;;;;;;4990258;28;20069;-60
2023/06/25 08:07:22;;;;;;;12.63;12.02;;;;;;;;;;4989739;28;20018;-62
2023/06/25 08:09:48;;;;;;;12.25;11.65;;;;;;;;;;4992960;28;20422;-60
2023/06/25 08:12:14;;;;;;;11.70;11.20;;;;;;;;;;4984756;28;20109;-62
2023/06/25 08:14:40;;;;;;;11.95;11.45;;;;;;;;;;4992419;28;20026;-62
2023/06/25 08:17:05;;;;;;;12.57;11.98;;;;;;;;;;4989020;28;20029;-62
2023/06/25 08:19:30;;;;;;;12.27;11.68;;;;;;;;;;4986593;28;20080;-62
2023/06/25 08:21:56;;;;;;;12.53;11.93;;;;;;;;;;4991221;28;20121;-61
2023/06/25 08:24:21;;;;;;;12.60;12.00;;;;;;;;;;4989516;28;20287;-62
2023/06/25 08:26:46;;;;;;;12.38;11.77;;;;;;;;;;4984586;28;20030;-61
2023/06/25 08:29:11;;;;;;;13.73;13.03;;;;;;;;;;4988834;28;20090;-63
2023/06/25 08:31:37;;;;;;;11.75;11.25;;;;;;;;;;4985528;28;20272;-62
2023/06/25 08:34:02;;;;;;;12.70;12.10;;;;;;;;;;4982755;28;20042;-62
2023/06/25 08:36:28;;;;;;;12.77;12.17;;;;;;;;;;4991875;28;20032;-61
2023/06/25 08:38:53;;;;;;;12.32;11.73;;;;;;;;;;4988015;28;20312;-59
2023/06/25 08:41:18;;;;;;;12.88;12.27;;;;;;;;;;4984321;28;20084;-61
2023/06/25 08:43:45;;;;;;;13.00;12.40;;;;;;;;;;4985056;28;20046;-61
2023/06/25 08:46:10;;;;;;;12.05;11.52;;;;;;;;;;4987136;28;20030;-60
2023/06/25 08:48:36;;;;;;;12.18;11.57;;;;;;;;;;4991851;28;20486;-61
2023/06/25 08:51:03;;;;;;;12.98;12.38;;;;;;;;;;4981895;28;20027;-60
2023/06/25 08:53:28;;;;;;;12.95;12.35;;;;;;;;;;4987316;28;20545;-61
2023/06/25 08:55:55;;;;;;;13.75;13.05;;;;;;;;;;4982665;28;20031;-64
2023/06/25 08:58:21;;;;;;;13.13;12.52;;;;;;;;;;4988778;28;20027;-66
2023/06/25 09:00:48;;;;;;;11.90;11.40;;;;;;;;;;4987497;28;20090;-68
2023/06/25 09:03:13;;;;;;;13.50;12.82;;;;;;;;;;4987679;28;20037;-67
2023/06/25 09:05:39;;;;;;;12.35;11.75;;;;;;;;;;4988544;28;20026;-67
2023/06/25 09:08:12;;;;;;;11.70;11.20;;;;;;;;;;4986921;28;20511;-68
2023/06/25 09:10:38;;;;;;;11.90;11.40;;;;;;;;;;4985371;28;20022;-67
2023/06/25 09:13:03;;;;;;;12.73;12.13;;;;;;;;;;4986548;28;20027;-67
2023/06/25 09:15:28;;;;;;;12.68;12.07;;;;;;;;;;4990240;28;20117;-67
2023/06/25 09:17:55;;;;;;;12.50;11.90;;;;;;;;;;4988197;28;20041;-67
2023/06/25 09:20:20;;;;;;;12.20;11.60;;;;;;;;;;4987191;28;20035;-67
2023/06/25 09:22:49;;;;;;;12.50;11.90;;;;;;;;;;4985887;28;20030;-67
2023/06/25 09:25:15;;;;;;;12.40;11.80;;;;;;;;;;4989196;28;20033;-68
2023/06/25 09:27:41;;;;;;;12.60;12.00;;;;;;;;;;4985714;28;20062;-67
2023/06/25 09:30:09;;;;;;;12.07;11.50;;;;;;;;;;4988469;28;20109;-67
2023/06/25 09:32:35;;;;;;;13.32;12.65;;;;;;;;;;4986032;28;20409;-67
2023/06/25 09:35:02;;;;;;;12.98;12.38;;;;;;;;;;4983852;28;20025;-67
2023/06/25 09:37:28;;;;;;;13.18;12.55;;;;;;;;;;4983726;28;20027;-67
2023/06/25 09:39:53;;;;;;;12.65;12.05;;;;;;;;;;4985562;28;20394;-66
2023/06/25 09:42:19;;;;;;;12.32;11.73;;;;;;;;;;4984154;28;20389;-68
2023/06/25 09:44:46;;;;;;;12.30;11.70;;;;;;;;;;4987812;28;20022;-67
2023/06/25 09:47:15;;;;;;;12.40;11.80;;;;;;;;;;4985831;28;20069;-67
2023/06/25 09:49:41;;;;;;;12.25;11.65;;;;;;;;;;4990870;28;20026;-67
2023/06/25 09:52:10;;;;;;;12.82;12.23;;;;;;;;;;4988868;28;20027;-68
2023/06/25 09:54:38;;;;;;;12.30;11.70;;;;;;;;;;4989202;28;20033;-67
2023/06/25 09:57:06;;;;;;;12.45;11.85;;;;;;;;;;4991927;28;20022;-66
2023/06/25 09:59:31;;;;;;;12.25;11.65;;;;;;;;;;4985099;28;20039;-67
2023/06/25 10:01:56;;;;;;;12.37;11.77;;;;;;;;;;4985701;28;20020;-67
2023/06/25 10:04:21;;;;;;;12.60;12.00;;;;;;;;;;4990457;28;20276;-66
2023/06/25 10:06:47;;;;;;;12.00;11.50;;;;;;;;;;4987920;28;20498;-67
2023/06/25 10:09:13;;;;;;;13.63;12.93;;;;;;;;;;4987191;28;20045;-68
2023/06/25 10:11:48;;;;;;;12.45;11.85;;;;;;;;;;4990334;28;20497;-67
2023/06/25 10:14:13;;;;;;;12.55;11.95;;;;;;;;;;4981558;28;20026;-67
2023/06/25 10:16:39;;;;;;;12.30;11.70;;;;;;;;;;4987637;28;20080;-67
2023/06/25 10:19:04;;;;;;;13.70;13.00;;;;;;;;;;4985959;28;20362;-67
2023/06/25 10:21:30;;;;;;;12.90;12.30;;;;;;;;;;4986981;28;20105;-67
2023/06/25 10:24:00;;;;;;;12.68;12.07;;;;;;;;;;4988142;28;20023;-67
2023/06/25 10:26:34;;;;;;;12.68;12.07;;;;;;;;;;4988421;28;20029;-67
2023/06/25 10:29:01;;;;;;;12.30;11.70;;;;;;;;;;4990800;28;20558;-67
2023/06/25 10:31:35;;;;;;;12.38;11.77;;;;;;;;;;4987122;28;20034;-67
2023/06/25 10:34:07;;;;;;;12.65;12.05;;;;;;;;;;4987627;28;20026;-66
2023/06/25 10:36:33;;;;;;;11.65;11.15;;;;;;;;;;4984944;28;20030;-66
2023/06/25 10:38:58;;;;;;;13.18;12.57;;;;;;;;;;4988761;28;20010;-67
2023/06/25 10:41:30;;;;;;;13.05;12.45;;;;;;;;;;4982073;28;20105;-67
2023/06/25 10:43:56;;;;;;;12.68;12.07;;;;;;;;;;4981598;28;20625;-68
2023/06/25 10:46:29;;;;;;;13.15;12.55;;;;;;;;;;4985498;28;20125;-67
2023/06/25 10:48:54;;;;;;;12.15;11.57;;;;;;;;;;4986717;28;20030;-67
2023/06/25 10:51:19;;;;;;;13.00;12.40;;;;;;;;;;4987091;28;20076;-68
2023/06/25 10:53:45;;;;;;;12.68;12.07;;;;;;;;;;4986124;28;20030;-68
2023/06/25 10:56:11;;;;;;;12.07;11.55;;;;;;;;;;4987986;28;20396;-67
2023/06/25 10:58:36;;;;;;;11.55;11.05;;;;;;;;;;4991002;28;20034;-67
2023/06/25 11:01:02;;;;;;;12.98;12.38;;;;;;;;;;4986832;28;20033;-67
2023/06/25 11:03:27;;;;;;;12.30;11.70;;;;;;;;;;4988194;28;20038;-67
2023/06/25 11:05:52;;;;;;;12.75;12.15;;;;;;;;;;4989166;28;20045;-67
2023/06/25 11:08:22;;;;;;;12.82;12.23;;;;;;;;;;4990090;28;20455;-67
2023/06/25 11:10:49;;;;;;;12.50;11.90;;;;;;;;;;4982742;28;20057;-67
2023/06/25 11:13:15;;;;;;;12.35;11.75;;;;;;;;;;4985758;28;20093;-67
2023/06/25 11:15:40;;;;;;;12.57;11.98;;;;;;;;;;4986116;28;20018;-67
2023/06/25 11:18:07;;;;;;;12.50;11.90;;;;;;;;;;4987019;28;20427;-67
2023/06/25 11:20:33;;;;;;;12.13;11.55;;;;;;;;;;4989771;28;20032;-67
2023/06/25 11:23:04;;;;;;;13.35;12.75;;;;;;;;;;4989793;28;20061;-68
2023/06/25 11:25:30;;;;;;;12.25;11.65;;;;;;;;;;4992754;28;20486;-67
2023/06/25 11:28:05;;;;;;;11.88;11.38;;;;;;;;;;4990309;28;20033;-66
2023/06/25 11:30:30;;;;;;;12.70;12.10;;;;;;;;;;4988631;28;20038;-68
2023/06/25 11:33:06;;;;;;;12.75;12.15;;;;;;;;;;4989966;28;20080;-68
2023/06/25 11:35:32;;;;;;;11.82;11.32;;;;;;;;;;4985038;28;20023;-66
2023/06/25 11:37:57;;;;;;;12.85;12.25;;;;;;;;;;4989077;28;20030;-66
2023/06/25 11:40:27;;;;;;;12.30;11.70;;;;;;;;;;4991619;28;20034;-67
2023/06/25 11:42:53;;;;;;;12.35;11.75;;;;;;;;;;4991020;28;20284;-68
2023/06/25 11:45:19;;;;;;;12.50;11.93;;;;;;;;;;4993214;28;20497;-68
2023/06/25 11:47:50;;;;;;;11.88;11.38;;;;;;;;;;4997411;28;20448;-66
2023/06/25 11:50:16;;;;;;;12.23;11.65;;;;;;;;;;4983481;28;20030;-67
2023/06/25 11:52:41;;;;;;;12.15;11.63;;;;;;;;;;4993442;28;20038;-66
2023/06/25 11:55:07;;;;;;;12.20;11.63;;;;;;;;;;4990985;28;20382;-67
2023/06/25 11:57:32;;;;;;;12.48;11.88;;;;;;;;;;4990787;28;20026;-67
2023/06/25 11:59:58;;;;;;;12.30;11.70;;;;;;;;;;4990778;28;20041;-67
2023/06/25 12:02:23;;;;;;;12.80;12.20;;;;;;;;;;4990796;28;20030;-68
2023/06/25 12:04:48;;;;;;;12.20;11.60;;;;;;;;;;4991273;28;20049;-68
2023/06/25 12:07:14;;;;;;;12.30;11.70;;;;;;;;;;4987650;28;20269;-67
2023/06/25 12:09:40;;;;;;;12.50;11.90;;;;;;;;;;4987835;28;20014;-67
2023/06/25 12:12:05;;;;;;;12.30;11.70;;;;;;;;;;4987203;28;20034;-67
2023/06/25 12:14:31;;;;;;;12.52;11.93;;;;;;;;;;4983878;28;20088;-67
2023/06/25 12:16:56;;;;;;;12.05;11.55;;;;;;;;;;4988402;28;20041;-67
2023/06/25 12:19:22;;;;;;;11.95;11.45;;;;;;;;;;4989015;28;20023;-67
2023/06/25 12:21:47;;;;;;;12.93;12.32;;;;;;;;;;4993497;28;20026;-67
2023/06/25 12:24:12;;;;;;;12.40;11.80;;;;;;;;;;4991752;28;20560;-67
2023/06/25 12:26:38;;;;;;;12.00;11.50;;;;;;;;;;4987488;28;20030;-67
2023/06/25 12:29:03;;;;;;;12.30;11.70;;;;;;;;;;4992635;28;20125;-67
2023/06/25 12:31:28;;;;;;;12.75;12.15;;;;;;;;;;4988446;28;20023;-66
2023/06/25 12:33:54;;;;;;;12.52;11.93;;;;;;;;;;4989761;28;20394;-67
2023/06/25 12:36:19;;;;;;;12.68;12.07;;;;;;;;;;4995060;28;20018;-67
2023/06/25 12:38:44;;;;;;;11.93;11.43;;;;;;;;;;4993853;28;20031;-68
2023/06/25 12:41:09;;;;;;;12.55;11.95;;;;;;;;;;4987165;28;20727;-66
2023/06/25 12:43:35;;;;;;;11.80;11.30;;;;;;;;;;4992448;28;20485;-67
2023/06/25 12:46:01;;;;;;;12.45;11.85;;;;;;;;;;4988178;28;20311;-67
2023/06/25 12:48:26;;;;;;;12.65;12.05;;;;;;;;;;4991352;28;20058;-68
2023/06/25 12:50:52;;;;;;;12.05;11.52;;;;;;;;;;4990295;28;20022;-67
2023/06/25 12:53:17;;;;;;;12.80;12.20;;;;;;;;;;4990094;28;20150;-67
2023/06/25 12:55:43;;;;;;;12.05;11.52;;;;;;;;;;4990047;28;20255;-66
2023/06/25 12:58:08;;;;;;;12.93;12.32;;;;;;;;;;4991331;28;20080;-67
2023/06/25 13:00:34;;;;;;;11.77;11.27;;;;;;;;;;4990659;28;20097;-63
2023/06/25 13:02:59;;;;;;;12.45;11.85;;;;;;;;;;4987796;28;20024;-65
2023/06/25 13:05:24;;;;;;;12.90;12.30;;;;;;;;;;4986306;28;20077;-65
2023/06/25 13:07:50;;;;;;;12.57;11.97;;;;;;;;;;4988386;28;20034;-65
2023/06/25 13:10:15;;;;;;;12.82;12.23;;;;;;;;;;4988346;28;20275;-66
2023/06/25 13:12:40;;;;;;;12.88;12.27;;;;;;;;;;4986649;28;20061;-64
2023/06/25 13:15:06;;;;;;;12.95;12.35;;;;;;;;;;4985580;28;20709;-63
2023/06/25 13:17:31;;;;;;;13.90;13.20;;;;;;;;;;4976860;28;20138;-63
2023/06/25 13:19:57;;;;;;;12.33;11.73;;;;;;;;;;4974178;28;20081;-60
2023/06/25 13:22:22;;;;;;;13.18;12.57;;;;;;;;;;4976546;28;20279;-62
2023/06/25 13:24:47;;;;;;;11.65;11.15;;;;;;;;;;4990623;28;20122;-62
2023/06/25 13:27:13;;;;;;;12.48;11.88;;;;;;;;;;4987895;28;20053;-62
2023/06/25 13:29:39;;;;;;;13.30;12.65;;;;;;;;;;4985837;28;20507;-65
2023/06/25 13:32:05;;;;;;;13.65;12.95;;;;;;;;;;4984402;28;20709;-62
2023/06/25 13:34:30;;;;;;;12.50;11.90;;;;;;;;;;4985119;28;20034;-62
2023/06/25 13:36:56;;;;;;;13.05;12.45;;;;;;;;;;4988827;28;20018;-62
2023/06/25 13:39:21;;;;;;;12.80;12.20;;;;;;;;;;4989996;28;20482;-63
2023/06/25 13:41:46;;;;;;;12.70;12.10;;;;;;;;;;4987822;28;20490;-62
2023/06/25 13:44:11;;;;;;;12.95;12.35;;;;;;;;;;4989241;28;20084;-63
2023/06/25 13:46:37;;;;;;;12.30;11.70;;;;;;;;;;4991347;28;20038;-63
2023/06/25 13:49:02;;;;;;;12.88;12.27;;;;;;;;;;4982279;28;20031;-62
2023/06/25 13:51:27;;;;;;;12.40;11.80;;;;;;;;;;4985257;28;20058;-62
2023/06/25 13:53:53;;;;;;;15.48;14.68;;;;;;;;;;4979326;28;20094;-61
2023/06/25 13:56:18;;;;;;;12.95;12.35;;;;;;;;;;4981511;28;20018;-61
2023/06/25 13:58:44;;;;;;;11.90;11.40;;;;;;;;;;4988569;28;20061;-62
2023/06/25 14:01:09;;;;;;;12.60;12.00;;;;;;;;;;4995013;28;20038;-62
2023/06/25 14:03:34;;;;;;;12.60;12.00;;;;;;;;;;4984891;28;20717;-62
2023/06/25 14:06:00;;;;;;;12.68;12.07;;;;;;;;;;4993254;28;20022;-64
2023/06/25 14:08:25;;;;;;;12.13;11.52;;;;;;;;;;4993935;28;20105;-61